Altoona, Pennsylvania
Current Conditions -  °F | °C
As of 5:53 AM on Sunday 26 Oct 2014 (Local Time) from KAOO Reporting Station
Clear Clear  
Wind Chill: 50°   Ceiling: Unl
Heat Index: 50°   Visibility: 10mi
Dew Point: 33°   Wind: 10mph
Humidity: 52%   Direction: 300°WNW
Pressure: 29.75"   Gusts: 23mph
Location:  40.51°N, 78.4°W
Report Text: KAOO 260953Z AUTO 30009G20KT 10SM CLR 10/01 A2975 RMK AO2 PK WND 32026/0939 SLP073 T01000006
Loading
Personal Weather Stations






























Interactive Weather Map New forecast layout! Learn more

10-Day Weather Forecast

Advertisements
Track Severe Weather on mobile